createdAt,value
2023-02-02T00:00:19.667Z,122.60
2023-02-02T00:02:26.676Z,122.53
2023-02-02T00:04:35.258Z,120.93
2023-02-02T00:06:42.388Z,114.55
2023-02-02T00:08:49.672Z,113.22
2023-02-02T00:10:56.817Z,114.90
2023-02-02T00:13:05.366Z,115.00
2023-02-02T00:15:13.522Z,112.35
2023-02-02T00:17:20.395Z,113.60
2023-02-02T00:19:29.011Z,111.97
2023-02-02T00:21:35.847Z,108.68
2023-02-02T00:23:42.964Z,111.85
2023-02-02T00:25:53.918Z,114.00
2023-02-02T00:28:01.326Z,113.73
2023-02-02T00:30:10.914Z,109.15
2023-02-02T00:32:18.909Z,109.75
2023-02-02T00:34:26.556Z,108.13
2023-02-02T00:36:33.868Z,105.63
2023-02-02T00:38:40.915Z,103.13
2023-02-02T00:40:48.306Z,103.32
2023-02-02T00:42:55.380Z,102.53
2023-02-02T00:45:19.193Z,102.68
2023-02-02T00:47:27.870Z,104.53
2023-02-02T00:49:35.167Z,104.72
2023-02-02T00:51:42.282Z,104.05
2023-02-02T00:53:49.622Z,103.10
2023-02-02T00:55:57.876Z,109.47
2023-02-02T00:58:04.902Z,114.88
2023-02-02T01:00:16.029Z,115.72
2023-02-02T01:02:23.753Z,117.75
2023-02-02T01:04:32.681Z,111.88
2023-02-02T01:06:39.978Z,109.70
2023-02-02T01:08:48.218Z,108.13
2023-02-02T01:10:56.287Z,110.88
2023-02-02T01:13:03.210Z,107.25
2023-02-02T01:15:12.544Z,104.13
2023-02-02T01:17:20.372Z,108.00
2023-02-02T01:19:27.222Z,109.47
2023-02-02T01:21:36.033Z,106.80
2023-02-02T01:23:43.317Z,106.82
2023-02-02T01:25:55.775Z,107.30
2023-02-02T01:28:02.599Z,109.45
2023-02-02T01:30:10.496Z,107.53
2023-02-02T01:32:17.572Z,106.70
2023-02-02T01:34:24.585Z,102.97
2023-02-02T01:36:32.143Z,104.80
2023-02-02T01:38:41.169Z,104.53
2023-02-02T01:40:51.623Z,102.82
2023-02-02T01:42:58.581Z,101.88
2023-02-02T01:45:27.406Z,99.50
2023-02-02T01:47:37.748Z,96.05
2023-02-02T01:49:45.678Z,93.22
2023-02-02T01:51:55.111Z,92.38
2023-02-02T01:54:05.944Z,88.43
2023-02-02T01:56:17.683Z,90.82
2023-02-02T02:00:32.812Z,91.28
2023-02-02T02:02:42.021Z,90.75
2023-02-02T02:04:49.157Z,94.53
2023-02-02T02:06:56.681Z,95.40
2023-02-02T02:09:07.529Z,91.93
2023-02-02T02:11:14.761Z,88.78
2023-02-02T02:13:23.633Z,91.65
2023-02-02T02:15:52.575Z,90.95
2023-02-02T02:20:59.365Z,90.05
2023-02-02T02:23:52.629Z,93.07
2023-02-02T02:26:37.636Z,93.22
2023-02-02T02:29:13.253Z,90.88
2023-02-02T02:31:45.408Z,89.50
2023-02-02T02:34:01.450Z,90.90
2023-02-02T02:36:13.958Z,89.97
2023-02-02T02:38:30.256Z,90.68
2023-02-02T02:40:43.845Z,86.85
2023-02-02T02:42:55.027Z,88.80
2023-02-02T02:45:05.776Z,84.68
2023-02-02T02:47:13.725Z,87.35
2023-02-02T02:49:23.113Z,87.25
2023-02-02T02:51:47.561Z,87.57
2023-02-02T02:54:05.479Z,85.78
2023-02-02T02:56:18.182Z,83.03
2023-02-02T02:58:33.927Z,82.35
2023-02-02T03:01:02.206Z,78.57
2023-02-02T03:03:19.571Z,70.32
2023-02-02T03:05:36.938Z,62.78
2023-02-02T03:07:48.842Z,76.63
2023-02-02T03:09:58.115Z,75.85
2023-02-02T03:12:05.345Z,73.95
2023-02-02T03:14:12.371Z,72.43
2023-02-02T03:16:20.531Z,72.57
2023-02-02T03:18:30.836Z,69.47
2023-02-02T03:20:40.065Z,61.30
2023-02-02T03:22:46.991Z,58.25
2023-02-02T03:24:54.576Z,57.65
2023-02-02T03:27:01.758Z,57.55
2023-02-02T03:29:09.097Z,60.53
2023-02-02T03:31:16.976Z,59.90
2023-02-02T03:33:24.840Z,61.65
2023-02-02T03:35:32.227Z,60.08
2023-02-02T03:37:41.301Z,61.78
2023-02-02T03:39:48.430Z,62.28
2023-02-02T03:41:55.409Z,60.30
2023-02-02T03:44:02.694Z,61.45
2023-02-02T03:46:10.205Z,62.17
2023-02-02T03:48:17.302Z,63.45
2023-02-02T03:50:26.188Z,64.60
2023-02-02T03:52:33.159Z,64.20
2023-02-02T03:54:42.138Z,64.57
2023-02-02T03:56:49.067Z,62.13
2023-02-02T03:58:56.276Z,55.50
2023-02-02T04:01:07.112Z,58.00
2023-02-02T04:03:15.421Z,53.50
2023-02-02T04:05:22.466Z,50.28
2023-02-02T04:07:29.837Z,51.72
2023-02-02T04:09:36.795Z,52.90
2023-02-02T04:11:45.885Z,47.15
2023-02-02T04:13:53.072Z,44.15
2023-02-02T04:16:04.474Z,43.90
2023-02-02T04:18:11.526Z,37.10
2023-02-02T04:20:18.810Z,35.03
2023-02-02T04:22:25.683Z,43.20
2023-02-02T04:24:32.968Z,41.08
2023-02-02T04:26:39.914Z,41.85
2023-02-02T04:28:48.867Z,42.83
2023-02-02T04:30:56.357Z,43.95
2023-02-02T04:33:03.536Z,44.80
2023-02-02T04:35:12.007Z,42.85
2023-02-02T04:37:19.439Z,43.25
2023-02-02T04:39:26.312Z,43.78
2023-02-02T04:41:33.687Z,43.17
2023-02-02T04:43:41.549Z,43.45
2023-02-02T04:45:51.301Z,40.55
2023-02-02T04:47:58.163Z,43.55
2023-02-02T04:50:05.244Z,42.05
2023-02-02T04:52:13.548Z,41.92
2023-02-02T04:54:20.782Z,40.00
2023-02-02T04:56:30.151Z,38.05
2023-02-02T04:58:37.095Z,46.38
2023-02-02T05:00:45.356Z,41.63
2023-02-02T05:02:54.064Z,48.90
2023-02-02T05:05:01.245Z,39.58
2023-02-02T05:07:08.175Z,38.42
2023-02-02T05:09:16.117Z,39.30
2023-02-02T05:11:24.890Z,38.97
2023-02-02T05:13:32.995Z,38.20
2023-02-02T05:15:40.121Z,37.72
2023-02-02T05:17:47.356Z,39.15
2023-02-02T05:19:56.538Z,36.40
2023-02-02T05:22:03.873Z,35.95
2023-02-02T05:24:11.257Z,37.20
2023-02-02T05:26:20.633Z,43.00
2023-02-02T05:28:28.070Z,37.08
2023-02-02T05:30:35.556Z,37.47
2023-02-02T05:32:42.648Z,36.38
2023-02-02T05:34:49.923Z,34.13
2023-02-02T05:36:58.649Z,34.60
2023-02-02T05:39:06.955Z,34.33
2023-02-02T05:41:13.931Z,33.63
2023-02-02T05:43:21.683Z,35.97
2023-02-02T05:45:28.766Z,34.83
2023-02-02T05:47:36.964Z,34.83
2023-02-02T05:49:43.925Z,34.60
2023-02-02T05:51:53.681Z,34.40
2023-02-02T05:54:02.857Z,34.35
2023-02-02T05:56:10.501Z,36.35
2023-02-02T05:58:18.397Z,35.97
2023-02-02T06:00:28.140Z,34.95
2023-02-02T06:02:35.016Z,35.65
2023-02-02T06:04:42.662Z,32.65
2023-02-02T06:06:49.485Z,32.33
2023-02-02T06:08:56.824Z,32.60
2023-02-02T06:11:12.956Z,31.77
2023-02-02T06:13:20.496Z,33.30
2023-02-02T06:15:28.580Z,33.88
2023-02-02T06:17:35.783Z,33.78
2023-02-02T06:19:42.655Z,33.60
2023-02-02T06:21:49.891Z,31.73
2023-02-02T06:23:56.825Z,32.08
2023-02-02T06:26:06.201Z,32.78
2023-02-02T06:28:13.079Z,31.45
2023-02-02T06:30:20.597Z,31.77
2023-02-02T06:32:27.447Z,31.35
2023-02-02T06:34:34.719Z,32.70
2023-02-02T06:36:41.750Z,31.38
2023-02-02T06:38:53.331Z,31.48
2023-02-02T06:41:05.526Z,30.52
2023-02-02T06:43:16.092Z,30.88
2023-02-02T06:45:23.974Z,29.48
2023-02-02T06:47:31.063Z,30.73
2023-02-02T06:49:38.208Z,28.80
2023-02-02T06:51:45.081Z,29.95
2023-02-02T06:53:52.767Z,28.98
2023-02-02T06:56:00.152Z,28.45
2023-02-02T06:58:08.973Z,29.50
2023-02-02T07:00:18.539Z,27.85
2023-02-02T07:02:26.764Z,28.37
2023-02-02T07:04:33.746Z,28.00
2023-02-02T07:06:42.469Z,27.27
2023-02-02T07:09:01.004Z,26.05
2023-02-02T07:11:13.390Z,27.05
2023-02-02T07:13:25.049Z,27.40
2023-02-02T07:15:31.966Z,28.08
2023-02-02T07:17:38.954Z,26.52
2023-02-02T07:19:45.876Z,26.48
2023-02-02T07:21:52.861Z,28.05
2023-02-02T07:24:00.806Z,27.17
2023-02-02T07:26:09.265Z,26.85
2023-02-02T07:28:16.297Z,26.70
2023-02-02T07:30:26.471Z,25.83
2023-02-02T07:32:33.989Z,25.05
2023-02-02T07:34:43.370Z,26.25
2023-02-02T07:36:50.483Z,26.30
2023-02-02T07:38:58.450Z,24.00
2023-02-02T07:41:06.046Z,25.90
2023-02-02T07:43:13.425Z,25.35
2023-02-02T07:45:24.547Z,25.80
2023-02-02T07:47:35.818Z,25.45
2023-02-02T07:49:43.063Z,24.80
2023-02-02T07:51:50.651Z,24.95
2023-02-02T07:53:59.715Z,25.13
2023-02-02T07:56:14.236Z,24.58
2023-02-02T07:58:21.822Z,22.90
2023-02-02T08:00:29.555Z,25.23
2023-02-02T08:02:38.576Z,25.58
2023-02-02T08:04:45.523Z,24.10
2023-02-02T08:06:52.445Z,25.42
2023-02-02T08:08:59.734Z,25.13
2023-02-02T08:11:06.794Z,25.25
2023-02-02T08:13:14.657Z,24.15
2023-02-02T08:15:22.268Z,24.58
2023-02-02T08:17:29.171Z,25.05
2023-02-02T08:19:37.839Z,24.50
2023-02-02T08:21:44.746Z,23.98
2023-02-02T08:23:51.893Z,24.92
2023-02-02T08:26:08.290Z,25.23
2023-02-02T08:28:15.474Z,25.10
2023-02-02T08:30:23.089Z,25.15
2023-02-02T08:32:30.094Z,23.90
2023-02-02T08:34:39.116Z,24.75
2023-02-02T08:36:46.606Z,25.20
2023-02-02T08:38:54.147Z,24.73
2023-02-02T08:41:07.783Z,25.35
2023-02-02T08:43:16.505Z,24.55
2023-02-02T08:46:03.434Z,23.00
2023-02-02T08:48:01.995Z,23.35
2023-02-02T08:50:19.924Z,22.88
2023-02-02T08:52:27.162Z,22.25
2023-02-02T08:54:34.196Z,22.88
2023-02-02T08:56:41.365Z,22.85
2023-02-02T08:58:50.074Z,22.52
2023-02-02T09:00:57.331Z,22.77
2023-02-02T09:03:04.192Z,22.65
2023-02-02T09:05:12.144Z,23.17
2023-02-02T09:07:21.282Z,23.42
2023-02-02T09:09:28.859Z,23.35
2023-02-02T09:11:36.249Z,22.15
2023-02-02T09:13:46.563Z,21.70
2023-02-02T09:15:53.602Z,20.45
2023-02-02T09:18:04.041Z,22.25
2023-02-02T09:20:11.885Z,20.88
2023-02-02T09:22:20.511Z,21.08
2023-02-02T09:24:28.687Z,22.25
2023-02-02T09:26:35.604Z,20.92
2023-02-02T09:28:44.099Z,20.45
2023-02-02T09:30:51.892Z,20.35
2023-02-02T09:32:59.062Z,20.52
2023-02-02T09:35:05.928Z,20.70
2023-02-02T09:37:12.908Z,20.63
2023-02-02T09:39:21.640Z,21.75
2023-02-02T09:42:15.774Z,20.98
2023-02-02T09:44:37.134Z,21.63
2023-02-02T09:46:59.319Z,21.92
2023-02-02T09:49:10.701Z,21.63
2023-02-02T09:51:22.442Z,22.42
2023-02-02T09:55:48.381Z,22.10
2023-02-02T09:57:58.944Z,21.38
2023-02-02T10:00:07.596Z,20.63
2023-02-02T10:02:27.277Z,20.23
2023-02-02T10:04:38.653Z,19.45
2023-02-02T10:06:47.525Z,19.88
2023-02-02T10:08:58.393Z,19.95
2023-02-02T10:11:18.328Z,19.42
2023-02-02T10:13:30.214Z,17.92
2023-02-02T10:17:52.856Z,19.23
2023-02-02T10:20:06.148Z,19.25
2023-02-02T10:22:21.298Z,18.38
2023-02-02T10:24:31.214Z,18.30
2023-02-02T10:26:47.125Z,18.58
2023-02-02T10:29:11.993Z,26.45
2023-02-02T10:31:28.357Z,19.77
2023-02-02T10:33:41.203Z,20.08
2023-02-02T10:35:56.873Z,19.67
2023-02-02T10:38:12.515Z,19.73
2023-02-02T10:40:28.187Z,19.58
2023-02-02T10:43:05.636Z,18.77
2023-02-02T10:45:19.087Z,18.67
2023-02-02T10:47:29.929Z,18.15
2023-02-02T10:49:40.353Z,18.15
2023-02-02T10:51:53.204Z,20.27
2023-02-02T10:54:06.274Z,21.38
2023-02-02T10:56:15.404Z,21.50
2023-02-02T10:58:31.134Z,20.85
2023-02-02T11:00:43.391Z,22.70
2023-02-02T11:02:51.591Z,23.65
2023-02-02T11:05:15.242Z,24.65
2023-02-02T11:07:22.848Z,22.25
2023-02-02T11:09:34.537Z,24.58
2023-02-02T11:11:46.287Z,26.67
2023-02-02T11:13:59.195Z,26.77
2023-02-02T11:16:41.598Z,27.42
2023-02-02T11:18:50.375Z,27.15
2023-02-02T11:20:57.451Z,27.60
2023-02-02T11:23:06.461Z,26.80
2023-02-02T11:25:34.208Z,26.88
2023-02-02T11:27:44.182Z,25.88
2023-02-02T11:29:54.947Z,26.75
2023-02-02T11:32:02.334Z,28.35
2023-02-02T11:34:21.324Z,26.75
2023-02-02T11:36:28.383Z,26.98
2023-02-02T11:38:35.944Z,24.08
2023-02-02T11:40:46.064Z,24.10
2023-02-02T11:42:54.233Z,25.10
2023-02-02T11:45:05.393Z,26.13
2023-02-02T11:47:21.226Z,25.05
2023-02-02T11:49:29.371Z,25.63
2023-02-02T11:51:37.072Z,23.85
2023-02-02T11:53:49.962Z,23.73
2023-02-02T11:55:58.246Z,24.33
2023-02-02T11:58:25.759Z,24.75
2023-02-02T12:00:35.684Z,25.50
2023-02-02T12:02:50.565Z,24.85
2023-02-02T12:05:15.683Z,26.02
2023-02-02T12:07:27.317Z,24.40
2023-02-02T12:09:34.217Z,26.05
2023-02-02T12:11:55.953Z,26.40
2023-02-02T12:14:14.724Z,25.33
2023-02-02T12:16:54.461Z,25.50
2023-02-02T12:19:19.603Z,25.65
2023-02-02T12:21:38.051Z,24.65
2023-02-02T12:24:00.172Z,24.15
2023-02-02T12:26:26.966Z,23.67
2023-02-02T12:28:54.361Z,24.52
2023-02-02T12:31:12.560Z,24.20
2023-02-02T12:33:34.037Z,25.10
2023-02-02T12:36:12.809Z,28.58
2023-02-02T12:38:27.511Z,24.45
2023-02-02T12:40:52.618Z,24.80
2023-02-02T12:43:09.831Z,26.40
2023-02-02T12:45:41.823Z,27.55
2023-02-02T12:47:59.984Z,28.02
2023-02-02T12:50:27.136Z,28.50
2023-02-02T12:52:48.854Z,27.30
2023-02-02T12:55:10.499Z,29.50
2023-02-02T12:57:23.955Z,29.30
2023-02-02T12:59:50.490Z,29.83
2023-02-02T13:02:08.165Z,29.00
2023-02-02T13:04:46.277Z,28.15
2023-02-02T13:07:15.218Z,27.20
2023-02-02T13:09:32.779Z,27.77
2023-02-02T13:11:46.836Z,29.00
2023-02-02T13:13:53.847Z,27.40
2023-02-02T13:16:06.739Z,27.60
2023-02-02T13:18:18.126Z,26.63
2023-02-02T13:20:40.173Z,27.00
2023-02-02T13:22:55.101Z,27.48
2023-02-02T13:25:06.048Z,24.88
2023-02-02T13:27:18.560Z,26.08
2023-02-02T13:29:42.659Z,27.23
2023-02-02T13:31:59.979Z,24.52
2023-02-02T13:34:17.177Z,26.15
2023-02-02T13:36:30.823Z,27.80
2023-02-02T13:38:43.279Z,27.73
2023-02-02T13:40:50.874Z,26.30
2023-02-02T13:43:07.319Z,27.67
2023-02-02T13:45:33.199Z,29.73
2023-02-02T13:47:45.132Z,32.83
2023-02-02T13:49:57.023Z,30.35
2023-02-02T13:52:28.219Z,27.98
2023-02-02T13:55:21.389Z,28.83
2023-02-02T13:58:14.543Z,31.65
2023-02-02T14:00:24.690Z,31.73
2023-02-02T14:02:36.478Z,35.05
2023-02-02T14:04:43.815Z,35.78
2023-02-02T14:09:10.160Z,35.40
2023-02-02T14:11:26.255Z,35.33
2023-02-02T14:14:03.192Z,33.20
2023-02-02T14:16:15.130Z,31.25
2023-02-02T14:18:56.880Z,31.17
2023-02-02T14:21:05.063Z,33.80
2023-02-02T14:23:44.260Z,32.17
2023-02-02T14:25:56.560Z,30.38
2023-02-02T14:30:24.978Z,29.77
2023-02-02T14:32:46.921Z,30.02
2023-02-02T14:37:31.238Z,32.83
2023-02-02T14:39:45.899Z,32.42
2023-02-02T14:42:34.912Z,34.30
2023-02-02T14:45:24.777Z,33.30
2023-02-02T14:47:53.424Z,34.95
2023-02-02T14:50:01.426Z,34.83
2023-02-02T14:52:08.577Z,42.00
2023-02-02T14:54:25.349Z,40.40
2023-02-02T14:56:50.756Z,42.00
2023-02-02T14:59:01.126Z,44.28
2023-02-02T15:01:26.686Z,44.97
2023-02-02T15:03:51.841Z,43.50
2023-02-02T15:06:11.164Z,43.50
2023-02-02T15:08:28.580Z,43.85
2023-02-02T15:11:03.311Z,43.97
2023-02-02T15:13:17.044Z,44.25
2023-02-02T15:15:28.843Z,45.90
2023-02-02T15:18:00.721Z,39.95
2023-02-02T15:20:21.919Z,44.47
2023-02-02T15:22:34.844Z,44.45
2023-02-02T15:24:42.295Z,45.95
2023-02-02T15:26:52.708Z,43.58
2023-02-02T15:29:03.152Z,43.53
2023-02-02T15:31:21.403Z,42.65
2023-02-02T15:33:33.669Z,43.25
2023-02-02T15:35:40.987Z,43.65
2023-02-02T15:37:57.731Z,44.90
2023-02-02T15:40:08.777Z,47.85
2023-02-02T15:42:37.313Z,45.35
2023-02-02T15:44:44.450Z,43.15
2023-02-02T15:46:52.059Z,44.50
2023-02-02T15:49:35.041Z,43.47
2023-02-02T15:51:45.871Z,43.60
2023-02-02T15:53:54.380Z,44.22
2023-02-02T15:56:03.204Z,46.60
2023-02-02T15:58:27.386Z,46.70
2023-02-02T16:00:36.992Z,47.28
2023-02-02T16:02:47.440Z,47.47
2023-02-02T16:04:56.251Z,46.20
2023-02-02T16:07:03.244Z,48.65
2023-02-02T16:09:25.912Z,48.42
2023-02-02T16:11:33.014Z,47.00
2023-02-02T16:13:41.254Z,47.88
2023-02-02T16:15:59.139Z,47.60
2023-02-02T16:18:08.880Z,43.42
2023-02-02T16:20:20.588Z,45.55
2023-02-02T16:24:37.121Z,45.88
2023-02-02T16:26:44.353Z,44.97
2023-02-02T16:28:52.863Z,44.67
2023-02-02T16:31:04.055Z,46.55
2023-02-02T16:33:38.735Z,45.90
2023-02-02T16:35:47.294Z,46.67
2023-02-02T16:37:55.181Z,48.95
2023-02-02T16:40:22.857Z,46.10
2023-02-02T16:42:31.456Z,43.33
2023-02-02T16:44:46.533Z,44.22
2023-02-02T16:46:54.072Z,45.47
2023-02-02T16:49:03.138Z,45.95
2023-02-02T16:51:27.790Z,47.83
2023-02-02T16:53:34.975Z,44.17
2023-02-02T16:55:50.420Z,46.40
2023-02-02T16:57:58.039Z,45.95
2023-02-02T17:00:08.617Z,45.25
2023-02-02T17:02:24.918Z,46.60
2023-02-02T17:04:35.807Z,46.63
2023-02-02T17:06:52.419Z,47.55
2023-02-02T17:09:00.947Z,46.72
2023-02-02T17:11:25.995Z,46.90
2023-02-02T17:13:41.860Z,44.35
2023-02-02T17:15:55.721Z,44.75
2023-02-02T17:18:03.099Z,45.28
2023-02-02T17:20:10.188Z,43.92
2023-02-02T17:22:20.477Z,45.35
2023-02-02T17:24:27.541Z,45.55
2023-02-02T17:26:34.799Z,46.63
2023-02-02T17:28:43.355Z,45.20
2023-02-02T17:30:52.567Z,46.03
2023-02-02T17:33:00.547Z,46.88
2023-02-02T17:35:17.038Z,44.47
2023-02-02T17:37:25.650Z,46.90
2023-02-02T17:39:32.883Z,48.42
2023-02-02T17:41:41.294Z,50.20
2023-02-02T17:43:48.713Z,51.67
2023-02-02T17:45:55.755Z,50.95
2023-02-02T17:48:03.042Z,64.35
2023-02-02T17:50:10.585Z,82.43
2023-02-02T17:52:17.766Z,81.50
2023-02-02T17:54:26.328Z,74.10
2023-02-02T17:56:34.637Z,58.03
2023-02-02T17:58:41.566Z,57.22
2023-02-02T18:01:00.022Z,54.88
2023-02-02T18:03:15.831Z,54.20
2023-02-02T18:05:23.383Z,55.67
2023-02-02T18:07:30.468Z,55.17
2023-02-02T18:09:39.464Z,56.03
2023-02-02T18:11:49.279Z,56.30
2023-02-02T18:13:56.536Z,57.35
2023-02-02T18:16:03.424Z,55.50
2023-02-02T18:18:10.692Z,55.13
2023-02-02T18:20:19.984Z,54.42
2023-02-02T18:22:27.439Z,53.92
2023-02-02T18:24:34.313Z,52.70
2023-02-02T18:26:43.140Z,52.20
2023-02-02T18:28:51.341Z,52.15
2023-02-02T18:30:58.715Z,50.40
2023-02-02T18:33:06.139Z,52.65
2023-02-02T18:35:15.187Z,51.95
2023-02-02T18:37:22.271Z,50.33
2023-02-02T18:39:29.248Z,50.83
2023-02-02T18:41:36.531Z,49.97
2023-02-02T18:43:45.666Z,51.75
2023-02-02T18:46:02.046Z,50.65
2023-02-02T18:48:09.440Z,51.10
2023-02-02T18:50:16.419Z,52.88
2023-02-02T18:52:23.752Z,50.50
2023-02-02T18:54:30.678Z,50.00
2023-02-02T18:56:37.964Z,50.17
2023-02-02T18:58:46.792Z,49.53
2023-02-02T19:00:54.516Z,50.15
2023-02-02T19:03:02.169Z,49.63
2023-02-02T19:05:26.569Z,47.78
2023-02-02T19:07:50.431Z,47.60
2023-02-02T19:09:57.711Z,47.20
2023-02-02T19:12:05.761Z,46.90
2023-02-02T19:14:20.333Z,45.35
2023-02-02T19:16:30.596Z,48.20
2023-02-02T19:18:38.120Z,48.53
2023-02-02T19:20:45.958Z,46.70
2023-02-02T19:22:56.654Z,47.05
2023-02-02T19:25:04.626Z,49.03
2023-02-02T19:27:20.979Z,46.13
2023-02-02T19:29:36.699Z,46.08
2023-02-02T19:31:43.716Z,45.42
2023-02-02T19:33:52.293Z,45.97
2023-02-02T19:35:59.167Z,45.22
2023-02-02T19:38:06.859Z,46.92
2023-02-02T19:40:25.788Z,46.13
2023-02-02T19:42:33.053Z,46.88
2023-02-02T19:44:42.996Z,46.28
2023-02-02T19:46:53.465Z,47.08
2023-02-02T19:49:10.582Z,47.47
2023-02-02T19:51:45.132Z,44.92
2023-02-02T19:53:52.386Z,45.08
2023-02-02T19:55:59.252Z,44.58
2023-02-02T19:58:16.107Z,43.95
2023-02-02T20:00:28.908Z,43.83
2023-02-02T20:03:08.276Z,43.95
2023-02-02T20:05:23.603Z,41.53
2023-02-02T20:07:31.787Z,41.97
2023-02-02T20:09:38.662Z,40.15
2023-02-02T20:11:46.902Z,42.15
2023-02-02T20:13:55.073Z,43.53
2023-02-02T20:16:04.606Z,43.35
2023-02-02T20:18:20.034Z,41.78
2023-02-02T20:20:30.187Z,42.72
2023-02-02T20:22:37.521Z,42.30
2023-02-02T20:24:45.461Z,42.92
2023-02-02T20:26:53.323Z,43.72
2023-02-02T20:29:02.084Z,41.67
2023-02-02T20:31:14.446Z,42.38
2023-02-02T20:33:25.817Z,41.45
2023-02-02T20:35:38.699Z,42.95
2023-02-02T20:37:45.816Z,41.15
2023-02-02T20:39:55.261Z,41.20
2023-02-02T20:42:02.123Z,39.45
2023-02-02T20:44:09.139Z,40.03
2023-02-02T20:46:18.159Z,38.25
2023-02-02T20:48:26.738Z,38.08
2023-02-02T20:50:33.613Z,37.50
2023-02-02T20:52:41.256Z,38.63
2023-02-02T20:54:48.346Z,38.08
2023-02-02T20:56:55.518Z,36.70
2023-02-02T20:59:02.442Z,35.40
2023-02-02T21:01:09.875Z,36.90
2023-02-02T21:03:18.547Z,39.58
2023-02-02T21:05:25.830Z,37.28
2023-02-02T21:07:32.862Z,39.35
2023-02-02T21:09:40.449Z,37.13
2023-02-02T21:11:47.583Z,38.55
2023-02-02T21:13:56.299Z,36.95
2023-02-02T21:16:03.171Z,38.30
2023-02-02T21:18:10.286Z,39.17
2023-02-02T21:20:19.282Z,38.72
2023-02-02T21:22:26.613Z,37.60
2023-02-02T21:24:33.449Z,36.15
2023-02-02T21:26:40.518Z,38.15
2023-02-02T21:28:47.695Z,36.13
2023-02-02T21:30:55.267Z,37.67
2023-02-02T21:33:02.828Z,37.90
2023-02-02T21:35:11.156Z,38.00
2023-02-02T21:37:20.723Z,38.75
2023-02-02T21:39:31.132Z,41.75
2023-02-02T21:41:38.160Z,40.13
2023-02-02T21:43:45.501Z,42.15
2023-02-02T21:45:54.292Z,42.17
2023-02-02T21:48:02.621Z,38.35
2023-02-02T21:50:18.929Z,41.05
2023-02-02T21:52:30.104Z,39.25
2023-02-02T21:54:41.100Z,40.25
2023-02-02T21:56:48.182Z,45.67
2023-02-02T21:58:55.118Z,41.08
2023-02-02T22:01:11.013Z,43.30
2023-02-02T22:03:39.996Z,41.25
2023-02-02T22:05:47.127Z,39.83
2023-02-02T22:07:59.738Z,38.92
2023-02-02T22:10:27.982Z,39.42
2023-02-02T22:12:35.809Z,38.63
2023-02-02T22:14:44.014Z,38.60
2023-02-02T22:16:53.504Z,39.25
2023-02-02T22:19:01.349Z,35.80
2023-02-02T22:21:10.473Z,39.63
2023-02-02T22:23:21.757Z,32.92
2023-02-02T22:25:35.333Z,33.00
2023-02-02T22:27:45.508Z,33.83
2023-02-02T22:29:53.024Z,29.42
2023-02-02T22:32:00.317Z,32.20
2023-02-02T22:34:07.217Z,30.80
2023-02-02T22:36:14.365Z,33.85
2023-02-02T22:38:24.464Z,33.72
2023-02-02T22:40:32.327Z,32.28
2023-02-02T22:42:39.237Z,33.70
2023-02-02T22:44:46.524Z,32.80
2023-02-02T22:46:53.396Z,31.98
2023-02-02T22:49:00.585Z,32.25
2023-02-02T22:51:07.453Z,31.45
2023-02-02T22:53:15.197Z,28.90
2023-02-02T22:55:24.998Z,26.15
2023-02-02T22:57:32.376Z,25.45
2023-02-02T22:59:39.356Z,27.48
2023-02-02T23:01:46.153Z,27.52
2023-02-02T23:03:53.362Z,24.52
2023-02-02T23:06:00.681Z,24.90
2023-02-02T23:08:07.506Z,24.45
2023-02-02T23:10:15.667Z,25.08
2023-02-02T23:12:24.439Z,24.52
2023-02-02T23:14:31.623Z,24.48
2023-02-02T23:16:38.498Z,25.98
2023-02-02T23:18:45.625Z,26.58
2023-02-02T23:20:52.502Z,24.95
2023-02-02T23:22:59.766Z,24.40
2023-02-02T23:25:07.168Z,21.42
2023-02-02T23:27:16.080Z,17.20
2023-02-02T23:29:25.785Z,15.85
2023-02-02T23:31:33.103Z,16.45
2023-02-02T23:33:39.939Z,16.60
2023-02-02T23:35:47.107Z,12.65
2023-02-02T23:37:53.946Z,13.10
2023-02-02T23:40:01.180Z,16.38
2023-02-02T23:42:08.167Z,19.50
2023-02-02T23:44:15.294Z,18.38
2023-02-02T23:46:23.995Z,16.35
2023-02-02T23:48:31.645Z,16.17
2023-02-02T23:50:40.869Z,16.65
2023-02-02T23:52:48.261Z,14.88
2023-02-02T23:54:56.057Z,15.00
2023-02-02T23:57:03.757Z,17.05
2023-02-02T23:59:10.613Z,19.13
